createdAt,value
2023-03-29T00:05:00.325Z,5.2
2023-03-29T00:10:00.650Z,5.5
2023-03-29T00:15:00.286Z,5.7
2023-03-29T00:20:00.254Z,5.5
2023-03-29T00:25:00.158Z,5.5
2023-03-29T00:30:00.309Z,5.3
2023-03-29T00:35:00.549Z,5.4
2023-03-29T00:40:00.345Z,5.5
2023-03-29T00:45:01.357Z,5.4
2023-03-29T00:50:00.132Z,5.4
2023-03-29T00:55:05.249Z,5.5
2023-03-29T01:00:00.172Z,5.6
2023-03-29T01:05:00.212Z,5.6
2023-03-29T01:09:59.922Z,5.5
2023-03-29T01:15:00.200Z,5.8
2023-03-29T01:19:59.923Z,5.8
2023-03-29T01:25:00.001Z,5.7
2023-03-29T01:29:59.822Z,5.7
2023-03-29T01:35:00.178Z,5.8
2023-03-29T01:40:00.290Z,6.1
2023-03-29T01:45:00.089Z,5.9
2023-03-29T01:50:04.252Z,5.9
2023-03-29T01:55:00.036Z,5.8
2023-03-29T01:59:59.822Z,5.9
2023-03-29T02:05:00.007Z,5.9
2023-03-29T02:10:00.245Z,6
2023-03-29T02:15:00.132Z,6
2023-03-29T02:20:00.080Z,6.1
2023-03-29T02:24:59.921Z,6.2
2023-03-29T02:30:00.074Z,6.1
2023-03-29T02:34:59.971Z,6.2
2023-03-29T02:40:00.330Z,6.2
2023-03-29T02:44:59.722Z,6.3
2023-03-29T02:50:00.115Z,6.2
2023-03-29T02:55:00.159Z,6.3
2023-03-29T03:00:00.513Z,6.2
2023-03-29T03:05:00.153Z,6.3
2023-03-29T03:10:00.014Z,6.2
2023-03-29T03:14:59.988Z,6.3
2023-03-29T03:20:00.163Z,6.2
2023-03-29T03:24:59.745Z,6.3
2023-03-29T03:30:00.314Z,6.3
2023-03-29T03:35:00.097Z,6.3
2023-03-29T03:39:59.937Z,6.3
2023-03-29T03:44:59.907Z,6.3
2023-03-29T03:50:00.043Z,6.3
2023-03-29T03:54:59.694Z,6.3
2023-03-29T03:59:59.766Z,6.4
2023-03-29T04:05:00.038Z,6.5
2023-03-29T04:10:00.243Z,6.4
2023-03-29T04:14:59.938Z,6.4
2023-03-29T04:20:00.114Z,6.4
2023-03-29T04:24:59.661Z,6.5
2023-03-29T04:29:59.787Z,6.4
2023-03-29T04:34:59.824Z,6.5
2023-03-29T04:39:59.826Z,6.7
2023-03-29T04:44:59.823Z,6.6
2023-03-29T04:50:00.293Z,6.6
2023-03-29T04:54:59.825Z,6.5
2023-03-29T04:59:59.929Z,6.6
2023-03-29T05:05:00.044Z,6.7
2023-03-29T05:09:59.718Z,6.5
2023-03-29T05:14:59.923Z,6.6
2023-03-29T05:19:59.742Z,6.6
2023-03-29T05:24:59.750Z,6.7
2023-03-29T05:30:00.390Z,6.9
2023-03-29T05:35:00.023Z,6.8
2023-03-29T05:40:05.825Z,6.7
2023-03-29T05:44:59.579Z,6.8
2023-03-29T05:50:00.014Z,6.9
2023-03-29T05:54:59.959Z,6.9
2023-03-29T05:59:59.796Z,6.9
2023-03-29T06:05:00.153Z,7
2023-03-29T06:10:00.322Z,7
2023-03-29T06:14:59.629Z,7
2023-03-29T06:19:59.649Z,7.3
2023-03-29T06:24:59.685Z,7.2
2023-03-29T06:29:59.797Z,7.1
2023-03-29T06:34:59.916Z,7.3
2023-03-29T06:39:59.909Z,7.1
2023-03-29T06:44:59.707Z,7.2
2023-03-29T06:49:59.890Z,7.2
2023-03-29T06:55:00.024Z,7.4
2023-03-29T06:59:59.528Z,7.4
2023-03-29T07:05:00.253Z,7.5
2023-03-29T07:09:59.560Z,7.5
2023-03-29T07:14:59.930Z,7.8
2023-03-29T07:19:59.784Z,7.8
2023-03-29T07:24:59.701Z,8.1
2023-03-29T07:29:59.816Z,8.1
2023-03-29T07:34:59.638Z,8.1
2023-03-29T07:39:59.544Z,8.2
2023-03-29T07:44:59.542Z,8.4
2023-03-29T07:50:00.365Z,8.4
2023-03-29T07:54:59.634Z,8.4
2023-03-29T07:59:59.672Z,8.4
2023-03-29T08:04:59.530Z,8.5
2023-03-29T08:09:59.700Z,8.6
2023-03-29T08:14:59.628Z,8.5
2023-03-29T08:19:59.817Z,8.6
2023-03-29T08:24:59.472Z,8.7
2023-03-29T08:29:59.765Z,8.8
2023-03-29T08:34:59.729Z,8.9
2023-03-29T08:39:59.963Z,8.9
2023-03-29T08:44:59.439Z,9
2023-03-29T08:50:00.233Z,9
2023-03-29T08:54:59.464Z,9.2
2023-03-29T09:00:02.118Z,9.2
2023-03-29T09:05:04.275Z,9.4
2023-03-29T09:09:59.440Z,9.5
2023-03-29T09:14:59.580Z,9.6
2023-03-29T09:19:59.474Z,9.6
2023-03-29T09:25:03.967Z,9.7
2023-03-29T09:29:59.725Z,9.6
2023-03-29T09:34:59.592Z,9.9
2023-03-29T09:40:04.981Z,10
2023-03-29T09:45:01.933Z,9.9
2023-03-29T09:49:59.569Z,10.1
2023-03-29T09:55:00.929Z,10.1
2023-03-29T09:59:59.651Z,10.3
2023-03-29T10:05:03.125Z,10.3
2023-03-29T10:09:59.726Z,10.4
2023-03-29T10:14:59.634Z,10.4
2023-03-29T10:20:01.515Z,10.5
2023-03-29T10:24:59.822Z,10.6
2023-03-29T10:29:59.362Z,10.4
2023-03-29T10:34:59.537Z,10.3
2023-03-29T10:39:59.477Z,10.1
2023-03-29T10:44:59.467Z,10.4
2023-03-29T10:49:59.533Z,10.4
2023-03-29T10:54:59.774Z,10.3
2023-03-29T11:00:02.593Z,10.2
2023-03-29T11:04:59.410Z,10.3
2023-03-29T11:10:03.811Z,10.3
2023-03-29T11:14:59.444Z,10.6
2023-03-29T11:20:05.091Z,10.6
2023-03-29T11:25:08.378Z,10.7
2023-03-29T11:29:59.516Z,10.7
2023-03-29T11:34:59.436Z,10.6
2023-03-29T11:39:59.330Z,11
2023-03-29T11:44:59.356Z,10.8
2023-03-29T11:50:03.267Z,10.8
2023-03-29T11:54:59.301Z,10.9
2023-03-29T11:59:59.425Z,10.9
2023-03-29T12:04:59.559Z,10.8
2023-03-29T12:09:59.502Z,10.8
2023-03-29T12:15:02.766Z,10.7
2023-03-29T12:20:11.065Z,10.6
2023-03-29T12:24:59.480Z,10.5
2023-03-29T12:29:59.276Z,10.6
2023-03-29T12:34:59.565Z,10.9
2023-03-29T12:40:02.306Z,10.8
2023-03-29T12:44:59.178Z,11
2023-03-29T12:49:59.376Z,11.3
2023-03-29T12:54:59.180Z,11.2
2023-03-29T13:00:06.988Z,11.5
2023-03-29T13:04:59.292Z,11.6
2023-03-29T13:09:59.412Z,11.4
2023-03-29T13:15:00.330Z,11.8
2023-03-29T13:19:59.461Z,12
2023-03-29T13:24:59.369Z,12.1
2023-03-29T13:30:06.145Z,12.1
2023-03-29T13:35:03.831Z,12.2
2023-03-29T13:39:59.802Z,12.3
2023-03-29T13:45:04.201Z,12.4
2023-03-29T13:49:59.375Z,12.6
2023-03-29T13:54:59.297Z,12.7
2023-03-29T13:59:59.429Z,12.7
2023-03-29T14:04:59.324Z,12.7
2023-03-29T14:09:59.161Z,13.1
2023-03-29T14:14:59.711Z,13.4
2023-03-29T14:19:59.428Z,13.9
2023-03-29T14:25:00.809Z,14.1
2023-03-29T14:29:59.599Z,13.8
2023-03-29T14:34:59.204Z,13.7
2023-03-29T14:39:59.383Z,13.8
2023-03-29T14:44:59.297Z,14.2
2023-03-29T14:50:00.171Z,13.9
2023-03-29T14:55:00.048Z,13.8
2023-03-29T14:59:59.453Z,13.9
2023-03-29T15:04:59.398Z,13.7
2023-03-29T15:09:59.191Z,13.6
2023-03-29T15:14:59.438Z,13.7
2023-03-29T15:20:02.251Z,13.6
2023-03-29T15:24:59.184Z,13.7
2023-03-29T15:30:00.139Z,13.6
2023-03-29T15:34:59.370Z,13.9
2023-03-29T15:39:59.293Z,13.8
2023-03-29T15:44:59.339Z,14
2023-03-29T15:49:59.427Z,13.8
2023-03-29T15:54:59.288Z,14
2023-03-29T15:59:59.133Z,13.9
2023-03-29T16:04:59.263Z,13.8
2023-03-29T16:09:59.140Z,13.9
2023-03-29T16:14:59.408Z,13.8
2023-03-29T16:19:59.390Z,13.8
2023-03-29T16:24:59.425Z,13.5
2023-03-29T16:29:59.204Z,13.3
2023-03-29T16:34:59.063Z,13.5
2023-03-29T16:39:59.085Z,13.5
2023-03-29T16:44:59.327Z,13.4
2023-03-29T16:49:59.502Z,13.5
2023-03-29T16:54:59.098Z,13.7
2023-03-29T16:59:59.289Z,13.6
2023-03-29T17:04:59.252Z,13.6
2023-03-29T17:09:59.199Z,13.2
2023-03-29T17:14:59.059Z,13.5
2023-03-29T17:19:59.113Z,13.5
2023-03-29T17:24:59.063Z,13.4
2023-03-29T17:29:59.420Z,13.5
2023-03-29T17:34:59.121Z,13.5
2023-03-29T17:39:59.742Z,13.6
2023-03-29T17:44:59.223Z,13.6
2023-03-29T17:49:59.406Z,13.2
2023-03-29T17:54:58.967Z,13.2
2023-03-29T17:59:59.404Z,13
2023-03-29T18:04:59.471Z,13
2023-03-29T18:09:59.238Z,12.8
2023-03-29T18:14:59.046Z,12.9
2023-03-29T18:19:59.197Z,12.9
2023-03-29T18:24:59.169Z,13
2023-03-29T18:29:58.960Z,13.1
2023-03-29T18:34:59.226Z,12.7
2023-03-29T18:39:58.970Z,12.5
2023-03-29T18:44:59.486Z,12.4
2023-03-29T18:49:59.029Z,12.7
2023-03-29T18:54:58.984Z,12.6
2023-03-29T18:59:59.117Z,12.7
2023-03-29T19:04:59.140Z,12.6
2023-03-29T19:09:59.311Z,12.6
2023-03-29T19:14:58.930Z,12.7
2023-03-29T19:19:58.941Z,12.8
2023-03-29T19:24:59.122Z,12.8
2023-03-29T19:29:58.909Z,12.9
2023-03-29T19:34:58.866Z,12.9
2023-03-29T19:39:59.417Z,12.7
2023-03-29T19:44:59.080Z,12.7
2023-03-29T19:49:59.118Z,12.6
2023-03-29T19:54:59.144Z,12.9
2023-03-29T19:59:58.870Z,12.8
2023-03-29T20:04:59.152Z,12.8
2023-03-29T20:09:58.828Z,12.7
2023-03-29T20:14:58.958Z,12.8
2023-03-29T20:19:59.388Z,12.9
2023-03-29T20:24:59.246Z,12.8
2023-03-29T20:29:59.147Z,12.7
2023-03-29T20:34:58.880Z,12.8
2023-03-29T20:39:58.840Z,12.9
2023-03-29T20:44:59.069Z,12.7
2023-03-29T20:49:59.034Z,12.8
2023-03-29T20:54:59.223Z,12.5
2023-03-29T20:59:58.957Z,12.8
2023-03-29T21:04:58.791Z,12.8
2023-03-29T21:09:58.771Z,12.8
2023-03-29T21:14:58.921Z,12.7
2023-03-29T21:19:59.077Z,13
2023-03-29T21:24:58.866Z,12.8
2023-03-29T21:29:59.122Z,12.6
2023-03-29T21:34:58.959Z,12.6
2023-03-29T21:39:59.072Z,12.6
2023-03-29T21:44:59.182Z,12.8
2023-03-29T21:49:59.020Z,12.7
2023-03-29T21:54:58.883Z,12.8
2023-03-29T21:59:58.726Z,12.7
2023-03-29T22:04:58.965Z,12.8
2023-03-29T22:09:58.862Z,12.9
2023-03-29T22:14:58.660Z,13
2023-03-29T22:19:58.766Z,13
2023-03-29T22:24:59.235Z,13.1
2023-03-29T22:29:58.845Z,13.1
2023-03-29T22:34:58.902Z,13
2023-03-29T22:39:58.989Z,13
2023-03-29T22:44:58.863Z,12.9
2023-03-29T22:49:58.726Z,13.1
2023-03-29T22:54:59.110Z,12.8
2023-03-29T22:59:58.695Z,12.8
2023-03-29T23:04:59.036Z,12.7
2023-03-29T23:09:58.683Z,12.6
2023-03-29T23:14:58.755Z,12.6
2023-03-29T23:19:58.838Z,12.6
2023-03-29T23:24:58.649Z,12.6
2023-03-29T23:29:58.732Z,12.7
2023-03-29T23:34:58.929Z,12.7
2023-03-29T23:39:58.664Z,12.7
2023-03-29T23:44:58.900Z,12.7
2023-03-29T23:49:58.700Z,12.9
2023-03-29T23:54:59.050Z,12.7
2023-03-29T23:59:58.835Z,12.8
